createdAt,value
2022-12-27T00:00:01.847Z,12.27
2022-12-27T00:02:29.273Z,6.75
2022-12-27T00:04:56.555Z,20.80
2022-12-27T00:07:24.113Z,8.77
2022-12-27T00:09:51.650Z,6.75
2022-12-27T00:12:18.907Z,15.40
2022-12-27T00:14:46.094Z,10.93
2022-12-27T00:17:13.637Z,7.20
2022-12-27T00:19:40.864Z,7.85
2022-12-27T00:22:08.195Z,5.65
2022-12-27T00:24:35.963Z,4.90
2022-12-27T00:27:03.233Z,8.63
2022-12-27T00:29:30.454Z,7.18
2022-12-27T00:31:57.811Z,7.45
2022-12-27T00:34:25.520Z,6.65
2022-12-27T00:36:52.704Z,15.20
2022-12-27T00:39:20.289Z,8.38
2022-12-27T00:41:47.442Z,12.82
2022-12-27T00:44:14.727Z,9.15
2022-12-27T00:46:41.806Z,9.18
2022-12-27T00:49:09.144Z,11.02
2022-12-27T00:51:37.161Z,10.10
2022-12-27T00:54:04.636Z,12.40
2022-12-27T00:56:31.983Z,10.00
2022-12-27T00:59:03.666Z,12.77
2022-12-27T01:01:36.209Z,8.73
2022-12-27T01:04:04.021Z,11.60
2022-12-27T01:06:33.093Z,8.05
2022-12-27T01:09:02.466Z,15.80
2022-12-27T01:11:30.696Z,15.55
2022-12-27T01:14:00.607Z,7.40
2022-12-27T01:16:29.894Z,10.38
2022-12-27T01:18:58.717Z,12.90
2022-12-27T01:21:26.368Z,6.00
2022-12-27T01:23:53.996Z,8.23
2022-12-27T01:26:23.238Z,11.35
2022-12-27T01:28:51.230Z,14.52
2022-12-27T01:31:21.806Z,11.88
2022-12-27T01:33:49.497Z,14.10
2022-12-27T01:36:18.675Z,8.05
2022-12-27T01:38:48.229Z,14.40
2022-12-27T01:41:38.852Z,8.85
2022-12-27T01:44:40.031Z,10.77
2022-12-27T01:47:31.969Z,8.73
2022-12-27T01:50:33.715Z,6.97
2022-12-27T01:53:13.014Z,9.73
2022-12-27T01:56:02.342Z,5.82
2022-12-27T01:58:35.810Z,8.38
2022-12-27T02:01:05.168Z,7.10
2022-12-27T02:03:51.064Z,8.20
2022-12-27T02:06:19.749Z,12.07
2022-12-27T02:08:55.979Z,8.63
2022-12-27T02:11:48.545Z,10.88
2022-12-27T02:14:28.715Z,8.00
2022-12-27T02:16:59.802Z,17.77
2022-12-27T02:20:09.530Z,7.13
2022-12-27T02:23:14.400Z,3.55
2022-12-27T02:25:50.974Z,11.70
2022-12-27T02:28:51.521Z,7.63
2022-12-27T02:31:44.067Z,14.70
2022-12-27T02:34:18.645Z,5.60
2022-12-27T02:36:46.839Z,7.05
2022-12-27T02:39:16.931Z,4.80
2022-12-27T02:42:05.011Z,5.43
2022-12-27T02:44:50.922Z,7.15
2022-12-27T02:47:41.762Z,7.78
2022-12-27T02:50:29.874Z,12.93
2022-12-27T02:53:21.884Z,17.10
2022-12-27T02:56:22.820Z,6.68
2022-12-27T02:59:29.588Z,13.52
2022-12-27T03:02:37.959Z,11.60
2022-12-27T03:05:33.207Z,5.95
2022-12-27T03:08:23.152Z,4.57
2022-12-27T03:11:20.016Z,6.38
2022-12-27T03:14:08.582Z,5.45
2022-12-27T03:16:57.962Z,6.57
2022-12-27T03:20:04.173Z,7.72
2022-12-27T03:22:51.904Z,7.15
2022-12-27T03:25:31.593Z,7.10
2022-12-27T03:28:31.943Z,5.63
2022-12-27T03:31:28.721Z,15.07
2022-12-27T03:34:05.122Z,5.05
2022-12-27T03:36:53.140Z,15.80
2022-12-27T03:39:30.588Z,5.30
2022-12-27T03:42:25.046Z,9.57
2022-12-27T03:44:52.725Z,9.10
2022-12-27T03:47:37.935Z,8.20
2022-12-27T03:50:10.965Z,10.23
2022-12-27T03:52:53.329Z,9.27
2022-12-27T03:55:20.793Z,8.23
2022-12-27T03:57:48.067Z,8.40
2022-12-27T04:00:15.630Z,14.82
2022-12-27T04:02:43.121Z,5.90
2022-12-27T04:05:11.694Z,3.92
2022-12-27T04:07:39.135Z,9.50
2022-12-27T04:10:25.363Z,11.57
2022-12-27T04:13:11.103Z,12.63
2022-12-27T04:15:56.814Z,9.93
2022-12-27T04:18:42.663Z,4.70
2022-12-27T04:21:28.415Z,4.13
2022-12-27T04:24:14.144Z,8.43
2022-12-27T04:27:00.086Z,16.08
2022-12-27T04:29:45.981Z,13.80
2022-12-27T04:32:31.761Z,10.27
2022-12-27T04:34:58.882Z,8.88
2022-12-27T04:37:26.142Z,16.23
2022-12-27T04:40:12.076Z,18.27
2022-12-27T04:42:58.023Z,8.98
2022-12-27T04:45:43.766Z,8.45
2022-12-27T04:48:32.603Z,15.18
2022-12-27T04:51:18.874Z,9.95
2022-12-27T04:54:04.943Z,16.88
2022-12-27T04:56:32.330Z,13.65
2022-12-27T04:59:22.247Z,16.25
2022-12-27T05:02:04.891Z,9.95
2022-12-27T05:04:34.979Z,9.05
2022-12-27T05:07:22.346Z,9.00
2022-12-27T05:10:08.509Z,9.40
2022-12-27T05:13:14.352Z,11.38
2022-12-27T05:15:41.517Z,17.35
2022-12-27T05:18:08.692Z,6.00
2022-12-27T05:20:36.089Z,9.38
2022-12-27T05:23:22.111Z,11.57
2022-12-27T05:25:49.185Z,17.10
2022-12-27T05:28:16.585Z,11.88
2022-12-27T05:30:44.822Z,11.20
2022-12-27T05:33:12.397Z,13.20
2022-12-27T05:35:40.208Z,15.18
2022-12-27T05:38:07.532Z,10.40
2022-12-27T05:40:35.412Z,14.95
2022-12-27T05:43:04.305Z,13.68
2022-12-27T05:45:32.736Z,11.18
2022-12-27T05:48:00.450Z,8.82
2022-12-27T05:50:28.032Z,10.88
2022-12-27T05:52:56.182Z,9.32
2022-12-27T05:55:23.455Z,5.57
2022-12-27T05:57:50.569Z,10.45
2022-12-27T06:00:18.150Z,15.55
2022-12-27T06:02:45.670Z,18.73
2022-12-27T06:05:13.225Z,8.50
2022-12-27T06:07:43.602Z,10.00
2022-12-27T06:10:11.036Z,16.67
2022-12-27T06:12:38.600Z,13.02
2022-12-27T06:15:07.466Z,13.25
2022-12-27T06:17:34.678Z,13.40
2022-12-27T06:20:01.943Z,21.20
2022-12-27T06:22:29.214Z,19.77
2022-12-27T06:24:56.382Z,11.52
2022-12-27T06:27:23.603Z,8.73
2022-12-27T06:29:50.888Z,12.70
2022-12-27T06:32:17.989Z,13.65
2022-12-27T06:34:45.799Z,12.73
2022-12-27T06:37:13.226Z,10.23
2022-12-27T06:39:40.520Z,12.30
2022-12-27T06:42:07.740Z,14.73
2022-12-27T06:44:34.892Z,7.68
2022-12-27T06:47:02.168Z,13.77
2022-12-27T06:49:33.083Z,21.65
2022-12-27T06:52:00.322Z,24.75
2022-12-27T06:54:27.998Z,7.65
2022-12-27T06:56:57.090Z,14.23
2022-12-27T06:59:24.768Z,13.23
2022-12-27T07:01:52.030Z,8.27
2022-12-27T07:04:19.396Z,12.07
2022-12-27T07:06:46.769Z,15.23
2022-12-27T07:09:13.963Z,42.58
2022-12-27T07:11:41.153Z,16.00
2022-12-27T07:14:11.043Z,8.95
2022-12-27T07:16:38.638Z,15.00
2022-12-27T07:19:05.947Z,15.43
2022-12-27T07:21:33.185Z,10.45
2022-12-27T07:24:00.354Z,7.35
2022-12-27T07:26:30.578Z,13.30
2022-12-27T07:29:03.283Z,11.82
2022-12-27T07:31:32.525Z,6.80
2022-12-27T07:34:04.695Z,10.55
2022-12-27T07:36:40.286Z,7.28
2022-12-27T07:39:08.737Z,13.13
2022-12-27T07:41:36.976Z,10.13
2022-12-27T07:44:05.177Z,10.82
2022-12-27T07:46:33.288Z,13.30
2022-12-27T07:49:00.929Z,13.48
2022-12-27T07:51:29.289Z,10.85
2022-12-27T07:53:56.668Z,7.88
2022-12-27T07:56:27.165Z,9.60
2022-12-27T07:58:56.666Z,16.63
2022-12-27T08:01:25.570Z,16.77
2022-12-27T08:03:53.098Z,21.17
2022-12-27T08:06:30.510Z,13.18
2022-12-27T08:09:00.268Z,7.63
2022-12-27T08:11:27.640Z,16.40
2022-12-27T08:13:54.967Z,8.15
2022-12-27T08:16:26.662Z,10.68
2022-12-27T08:18:54.100Z,9.15
2022-12-27T08:21:21.825Z,9.27
2022-12-27T08:23:49.018Z,14.77
2022-12-27T08:26:16.605Z,12.13
2022-12-27T08:28:43.901Z,10.32
2022-12-27T08:31:13.050Z,13.32
2022-12-27T08:33:42.293Z,17.23
2022-12-27T08:39:02.239Z,14.95
2022-12-27T08:41:32.157Z,13.10
2022-12-27T08:43:59.274Z,17.10
2022-12-27T08:46:26.580Z,12.48
2022-12-27T08:48:53.844Z,19.35
2022-12-27T08:51:33.085Z,10.82
2022-12-27T08:54:03.255Z,15.88
2022-12-27T08:56:30.451Z,22.27
2022-12-27T08:58:57.722Z,16.05
2022-12-27T09:01:26.080Z,11.35
2022-12-27T09:03:54.034Z,11.98
2022-12-27T09:06:23.367Z,14.80
2022-12-27T09:08:52.319Z,9.43
2022-12-27T09:11:22.525Z,13.27
2022-12-27T09:13:50.040Z,13.15
2022-12-27T09:16:23.964Z,13.60
2022-12-27T09:18:53.717Z,13.35
2022-12-27T09:21:22.776Z,10.02
2022-12-27T09:23:51.632Z,10.02
2022-12-27T09:26:21.959Z,11.52
2022-12-27T09:28:50.356Z,10.70
2022-12-27T09:31:19.518Z,8.75
2022-12-27T09:33:46.969Z,6.72
2022-12-27T09:36:26.323Z,14.75
2022-12-27T09:38:55.274Z,12.07
2022-12-27T09:45:03.851Z,21.60
2022-12-27T09:47:39.415Z,8.77
2022-12-27T09:50:19.200Z,12.20
2022-12-27T09:53:14.254Z,8.65
2022-12-27T09:55:46.860Z,11.73
2022-12-27T09:58:22.084Z,10.50
2022-12-27T10:03:24.061Z,12.82
2022-12-27T10:06:09.830Z,9.07
2022-12-27T10:08:51.302Z,18.92
2022-12-27T10:11:41.867Z,13.43
2022-12-27T10:14:50.645Z,10.57
2022-12-27T10:17:30.755Z,10.73
2022-12-27T10:20:24.627Z,12.00
2022-12-27T10:22:54.966Z,11.55
2022-12-27T10:25:24.730Z,11.43
2022-12-27T10:27:58.751Z,13.65
2022-12-27T10:30:28.641Z,16.40
2022-12-27T10:32:55.970Z,11.52
2022-12-27T10:35:24.377Z,13.43
2022-12-27T10:37:53.900Z,13.35
2022-12-27T10:41:08.271Z,15.25
2022-12-27T10:43:43.160Z,8.73
2022-12-27T10:46:21.119Z,8.13
2022-12-27T10:49:20.199Z,9.65
2022-12-27T10:51:43.535Z,19.52
2022-12-27T10:54:28.207Z,17.88
2022-12-27T10:56:56.427Z,10.90
2022-12-27T10:59:30.035Z,7.80
2022-12-27T11:02:03.303Z,12.73
2022-12-27T11:04:33.208Z,13.45
2022-12-27T11:07:02.008Z,7.38
2022-12-27T11:09:33.071Z,19.60
2022-12-27T11:12:23.868Z,12.57
2022-12-27T11:15:08.680Z,15.55
2022-12-27T11:17:45.880Z,14.00
2022-12-27T11:20:16.079Z,9.13
2022-12-27T11:23:12.473Z,14.13
2022-12-27T11:25:58.099Z,8.43
2022-12-27T11:31:02.054Z,13.23
2022-12-27T11:33:37.436Z,12.77
2022-12-27T11:38:34.722Z,13.07
2022-12-27T11:41:07.227Z,10.73
2022-12-27T11:43:47.433Z,7.78
2022-12-27T11:46:41.186Z,6.22
2022-12-27T11:49:17.679Z,16.95
2022-12-27T11:52:07.909Z,5.80
2022-12-27T11:54:55.358Z,9.45
2022-12-27T11:57:35.383Z,17.35
2022-12-27T12:00:27.196Z,15.90
2022-12-27T12:03:13.433Z,9.73
2022-12-27T12:06:09.017Z,15.63
2022-12-27T12:09:14.613Z,12.45
2022-12-27T12:11:54.896Z,10.67
2022-12-27T12:14:41.533Z,31.15
2022-12-27T12:17:46.115Z,17.38
2022-12-27T12:20:51.127Z,10.45
2022-12-27T12:23:55.435Z,7.03
2022-12-27T12:26:26.068Z,14.80
2022-12-27T12:29:20.589Z,36.40
2022-12-27T12:32:06.607Z,14.52
2022-12-27T12:34:50.166Z,18.10
2022-12-27T12:38:02.641Z,9.23
2022-12-27T12:40:33.224Z,7.00
2022-12-27T12:43:39.783Z,5.72
2022-12-27T12:49:23.211Z,6.53
2022-12-27T12:52:19.394Z,7.72
2022-12-27T12:55:01.744Z,7.32
2022-12-27T12:57:37.745Z,10.52
2022-12-27T13:00:47.164Z,7.45
2022-12-27T13:03:47.625Z,17.52
2022-12-27T13:06:40.541Z,6.43
2022-12-27T13:09:31.759Z,14.48
2022-12-27T13:12:24.285Z,9.93
2022-12-27T13:14:57.383Z,7.20
2022-12-27T13:17:48.435Z,12.02
2022-12-27T13:20:23.618Z,6.13
2022-12-27T13:23:20.325Z,8.85
2022-12-27T13:26:00.672Z,5.97
2022-12-27T13:28:51.743Z,9.43
2022-12-27T13:32:01.222Z,13.35
2022-12-27T13:34:28.464Z,16.45
2022-12-27T13:37:16.750Z,4.95
2022-12-27T13:40:11.166Z,11.45
2022-12-27T13:42:44.821Z,6.30
2022-12-27T13:45:26.945Z,8.00
2022-12-27T13:48:16.006Z,14.82
2022-12-27T13:51:05.231Z,13.45
2022-12-27T13:54:09.835Z,6.85
2022-12-27T13:56:54.921Z,12.48
2022-12-27T14:02:37.668Z,15.60
2022-12-27T14:05:42.488Z,10.80
2022-12-27T14:08:39.532Z,6.38
2022-12-27T14:11:21.915Z,7.53
2022-12-27T14:13:49.880Z,13.95
2022-12-27T14:16:41.279Z,18.75
2022-12-27T14:19:15.913Z,4.28
2022-12-27T14:22:04.957Z,8.57
2022-12-27T14:24:55.783Z,8.38
2022-12-27T14:27:49.309Z,16.35
2022-12-27T14:30:41.318Z,16.10
2022-12-27T14:33:46.237Z,12.98
2022-12-27T14:36:25.438Z,14.50
2022-12-27T14:38:52.453Z,10.40
2022-12-27T14:41:59.720Z,10.45
2022-12-27T14:44:54.656Z,8.73
2022-12-27T14:47:33.693Z,11.07
2022-12-27T14:50:37.218Z,11.23
2022-12-27T14:53:29.309Z,9.02
2022-12-27T14:55:56.582Z,12.23
2022-12-27T14:58:34.544Z,12.00
2022-12-27T15:01:28.666Z,12.00
2022-12-27T15:04:01.943Z,89.07
2022-12-27T15:06:59.158Z,265.00
2022-12-27T15:09:26.274Z,270.08
2022-12-27T15:12:11.418Z,613.15
2022-12-27T15:14:56.119Z,476.73
2022-12-27T15:17:55.093Z,546.67
2022-12-27T15:20:32.727Z,156.88
2022-12-27T15:23:26.839Z,54.45
2022-12-27T15:26:25.883Z,46.22
2022-12-27T15:29:19.400Z,26.92
2022-12-27T15:31:46.487Z,13.93
2022-12-27T15:34:40.659Z,21.95
2022-12-27T15:37:45.973Z,352.52
2022-12-27T15:40:36.382Z,164.32
2022-12-27T15:43:27.503Z,182.55
2022-12-27T15:46:36.107Z,83.97
2022-12-27T15:49:21.757Z,91.80
2022-12-27T15:52:12.607Z,76.93
2022-12-27T15:54:43.496Z,72.22
2022-12-27T15:57:38.760Z,83.03
2022-12-27T16:00:33.320Z,39.92
2022-12-27T16:03:03.399Z,21.80
2022-12-27T16:05:47.783Z,18.73
2022-12-27T16:08:24.336Z,18.08
2022-12-27T16:10:52.705Z,12.27
2022-12-27T16:13:42.826Z,15.77
2022-12-27T16:16:47.855Z,28.45
2022-12-27T16:19:36.865Z,11.20
2022-12-27T16:22:38.673Z,13.85
2022-12-27T16:25:24.209Z,18.40
2022-12-27T16:28:19.939Z,8.55
2022-12-27T16:30:50.445Z,8.38
2022-12-27T16:33:26.747Z,10.63
2022-12-27T16:36:13.753Z,15.52
2022-12-27T16:38:53.102Z,14.32
2022-12-27T16:41:44.998Z,12.57
2022-12-27T16:44:24.498Z,13.05
2022-12-27T16:47:03.569Z,12.38
2022-12-27T16:50:09.044Z,12.80
2022-12-27T16:52:53.473Z,11.50
2022-12-27T16:55:40.774Z,16.75
2022-12-27T16:58:20.041Z,6.65
2022-12-27T17:00:49.215Z,7.15
2022-12-27T17:03:22.766Z,12.05
2022-12-27T17:08:42.019Z,9.98
2022-12-27T17:11:31.785Z,15.38
2022-12-27T17:14:06.228Z,6.78
2022-12-27T17:16:51.538Z,11.50
2022-12-27T17:19:38.053Z,13.25
2022-12-27T17:22:11.105Z,7.20
2022-12-27T17:24:39.091Z,4.90
2022-12-27T17:27:28.475Z,12.23
2022-12-27T17:30:03.366Z,11.32
2022-12-27T17:35:28.660Z,6.82
2022-12-27T17:38:25.415Z,8.88
2022-12-27T17:41:04.551Z,11.13
2022-12-27T17:44:17.357Z,6.38
2022-12-27T17:47:15.238Z,14.13
2022-12-27T17:49:43.915Z,8.85
2022-12-27T17:52:35.892Z,15.88
2022-12-27T17:55:38.697Z,10.15
2022-12-27T17:58:08.977Z,12.13
2022-12-27T18:00:53.751Z,11.75
2022-12-27T18:03:21.508Z,24.60
2022-12-27T18:05:49.983Z,13.27
2022-12-27T18:08:29.063Z,12.95
2022-12-27T18:11:01.867Z,9.48
2022-12-27T18:13:37.724Z,12.48
2022-12-27T18:16:27.398Z,8.07
2022-12-27T18:19:00.123Z,15.85
2022-12-27T18:21:29.339Z,8.68
2022-12-27T18:23:57.427Z,18.88
2022-12-27T18:26:39.694Z,8.93
2022-12-27T18:29:11.659Z,16.88
2022-12-27T18:31:49.962Z,13.23
2022-12-27T18:34:26.912Z,10.85
2022-12-27T18:36:59.559Z,14.13
2022-12-27T18:39:29.857Z,13.27
2022-12-27T18:41:58.399Z,15.95
2022-12-27T18:44:28.990Z,10.88
2022-12-27T18:47:00.776Z,15.05
2022-12-27T18:49:35.197Z,17.40
2022-12-27T18:52:12.283Z,14.32
2022-12-27T18:54:43.229Z,8.50
2022-12-27T18:57:33.796Z,14.90
2022-12-27T19:00:11.856Z,13.40
2022-12-27T19:02:39.334Z,16.23
2022-12-27T19:05:20.756Z,10.80
2022-12-27T19:07:52.064Z,23.38
2022-12-27T19:10:25.191Z,10.00
2022-12-27T19:12:53.997Z,14.13
2022-12-27T19:15:45.443Z,20.63
2022-12-27T19:18:38.445Z,14.68
2022-12-27T19:21:07.077Z,13.25
2022-12-27T19:23:43.291Z,13.45
2022-12-27T19:26:16.856Z,17.48
2022-12-27T19:29:00.417Z,11.98
2022-12-27T19:31:30.845Z,10.32
2022-12-27T19:34:07.068Z,13.57
2022-12-27T19:36:42.745Z,15.18
2022-12-27T19:39:37.279Z,15.55
2022-12-27T19:42:07.458Z,14.95
2022-12-27T19:44:34.838Z,15.70
2022-12-27T19:47:02.038Z,18.20
2022-12-27T19:49:42.566Z,18.17
2022-12-27T19:52:21.019Z,17.42
2022-12-27T19:54:49.673Z,14.35
2022-12-27T19:57:17.176Z,21.85
2022-12-27T19:59:44.676Z,18.65
2022-12-27T20:02:12.371Z,21.23
2022-12-27T20:04:39.872Z,17.55
2022-12-27T20:07:07.200Z,17.02
2022-12-27T20:09:34.460Z,18.15
2022-12-27T20:12:02.836Z,19.13
2022-12-27T20:14:31.359Z,18.10
2022-12-27T20:16:58.637Z,11.68
2022-12-27T20:19:26.169Z,18.00
2022-12-27T20:21:53.557Z,19.35
2022-12-27T20:24:20.939Z,32.55
2022-12-27T20:26:48.158Z,20.33
2022-12-27T20:29:15.814Z,20.55
2022-12-27T20:31:50.746Z,30.38
2022-12-27T20:34:18.791Z,19.08
2022-12-27T20:36:46.712Z,21.05
2022-12-27T20:39:13.961Z,21.33
2022-12-27T20:41:41.171Z,26.92
2022-12-27T20:44:08.929Z,19.95
2022-12-27T20:46:36.304Z,22.38
2022-12-27T20:49:03.507Z,19.90
2022-12-27T20:51:33.707Z,24.98
2022-12-27T20:54:05.222Z,25.50
2022-12-27T20:56:32.711Z,29.88
2022-12-27T20:59:01.704Z,30.70
2022-12-27T21:01:29.342Z,31.20
2022-12-27T21:03:57.031Z,28.40
2022-12-27T21:06:27.844Z,26.27
2022-12-27T21:08:57.781Z,27.13
2022-12-27T21:11:31.658Z,29.52
2022-12-27T21:14:04.074Z,27.83
2022-12-27T21:16:35.601Z,26.60
2022-12-27T21:19:05.282Z,35.03
2022-12-27T21:21:38.549Z,23.63
2022-12-27T21:24:07.793Z,29.05
2022-12-27T21:26:37.694Z,37.35
2022-12-27T21:29:07.153Z,23.30
2022-12-27T21:31:35.050Z,33.83
2022-12-27T21:34:03.222Z,33.75
2022-12-27T21:36:32.401Z,31.98
2022-12-27T21:38:59.595Z,29.05
2022-12-27T21:41:29.300Z,25.65
2022-12-27T21:43:57.892Z,32.88
2022-12-27T21:46:30.952Z,27.27
2022-12-27T21:49:04.637Z,25.00
2022-12-27T21:51:34.207Z,28.60
2022-12-27T21:54:04.847Z,24.17
2022-12-27T21:56:32.070Z,26.83
2022-12-27T21:59:00.645Z,25.90
2022-12-27T22:01:50.101Z,22.73
2022-12-27T22:04:20.590Z,24.42
2022-12-27T22:06:48.147Z,29.30
2022-12-27T22:09:16.472Z,27.77
2022-12-27T22:11:43.871Z,25.35
2022-12-27T22:14:11.030Z,26.50
2022-12-27T22:16:39.909Z,23.08
2022-12-27T22:19:10.896Z,30.95
2022-12-27T22:21:39.712Z,27.33
2022-12-27T22:24:07.196Z,24.73
2022-12-27T22:26:40.840Z,33.25
2022-12-27T22:29:08.307Z,24.15
2022-12-27T22:31:38.253Z,26.65
2022-12-27T22:34:06.556Z,21.13
2022-12-27T22:36:34.707Z,30.60
2022-12-27T22:39:02.636Z,22.73
2022-12-27T22:41:35.171Z,23.50
2022-12-27T22:44:05.853Z,17.52
2022-12-27T22:49:23.041Z,27.00
2022-12-27T22:51:51.091Z,28.50
2022-12-27T22:54:18.897Z,24.25
2022-12-27T22:56:51.374Z,24.90
2022-12-27T22:59:19.076Z,20.95
2022-12-27T23:01:46.594Z,23.58
2022-12-27T23:04:14.992Z,25.25
2022-12-27T23:06:42.946Z,21.40
2022-12-27T23:09:12.303Z,18.10
2022-12-27T23:11:41.433Z,21.15
2022-12-27T23:14:16.971Z,32.13
2022-12-27T23:16:46.890Z,24.77
2022-12-27T23:19:16.659Z,22.42
2022-12-27T23:21:44.324Z,20.23
2022-12-27T23:24:11.937Z,17.85
2022-12-27T23:26:39.957Z,20.08
2022-12-27T23:29:07.844Z,19.33
2022-12-27T23:31:35.153Z,17.95
2022-12-27T23:34:02.375Z,18.38
2022-12-27T23:36:32.233Z,16.00
2022-12-27T23:38:59.494Z,16.02
2022-12-27T23:41:26.813Z,25.40
2022-12-27T23:43:55.962Z,19.88
2022-12-27T23:46:34.291Z,16.85
2022-12-27T23:49:03.817Z,15.45
2022-12-27T23:51:32.084Z,12.38
2022-12-27T23:53:59.471Z,12.70
2022-12-27T23:56:30.045Z,17.33
2022-12-27T23:58:59.510Z,16.45
